Time;durP1;ratioP1;P1;durP2;ratioP2;P2;SDS_P1;SDS_P2;PMS_P1;PMS_P2;Temp;Humidity;BMP_temperature;BMP_pressure;BME280_temperature;BME280_humidity;BME280_pressure;Samples;Min_cycle;Max_cycle;Signal;HPM_P1;HPM_P2
2021/12/09 00:02:12;;;;;;;14.38;7.30;;;2.90;99.90;;;;;;5018609;28;20045;-79
2021/12/09 00:04:38;;;;;;;15.32;8.02;;;2.90;99.90;;;;;;5018151;28;20361;-79
2021/12/09 00:07:04;;;;;;;15.17;8.40;;;2.80;99.90;;;;;;5036032;28;20045;-79
2021/12/09 00:09:31;;;;;;;15.17;8.30;;;2.80;99.90;;;;;;5034820;28;20416;-79
2021/12/09 00:11:58;;;;;;;14.32;8.45;;;2.80;99.90;;;;;;5034668;28;20123;-80
2021/12/09 00:14:29;;;;;;;13.45;8.00;;;2.90;99.90;;;;;;5034712;28;20057;-79
2021/12/09 00:16:58;;;;;;;11.98;7.53;;;2.80;99.90;;;;;;5034815;28;20049;-79
2021/12/09 00:19:24;;;;;;;16.25;8.48;;;2.80;99.90;;;;;;5034716;28;20053;-80
2021/12/09 00:21:50;;;;;;;18.30;9.20;;;2.80;99.90;;;;;;5034240;28;20072;-79
2021/12/09 00:24:16;;;;;;;15.17;8.47;;;2.80;99.90;;;;;;5034340;28;20481;-79
2021/12/09 00:26:44;;;;;;;15.05;8.10;;;2.80;99.90;;;;;;5016297;28;20350;-79
2021/12/09 00:29:14;;;;;;;16.63;8.82;;;2.80;99.90;;;;;;5033897;28;20473;-79
2021/12/09 00:31:39;;;;;;;17.65;8.57;;;2.80;99.90;;;;;;5033742;28;20489;-79
2021/12/09 00:34:05;;;;;;;18.67;7.60;;;2.80;99.90;;;;;;5033580;28;20056;-79
2021/12/09 00:36:38;;;;;;;21.63;9.07;;;2.80;99.90;;;;;;5033905;28;20129;-78
2021/12/09 00:39:07;;;;;;;16.90;8.35;;;2.80;99.90;;;;;;5033967;28;20053;-80
2021/12/09 00:41:33;;;;;;;13.80;8.20;;;2.80;99.90;;;;;;5033972;28;20053;-77
2021/12/09 00:43:59;;;;;;;16.50;8.60;;;2.70;99.90;;;;;;5033681;28;20508;-80
2021/12/09 00:46:24;;;;;;;16.27;9.43;;;2.70;99.90;;;;;;5033973;28;20045;-80
2021/12/09 00:48:50;;;;;;;17.80;9.87;;;2.70;99.90;;;;;;5033838;28;20569;-79
2021/12/09 00:51:16;;;;;;;19.53;9.33;;;2.70;99.90;;;;;;5033992;28;20041;-79
2021/12/09 00:53:42;;;;;;;23.20;9.80;;;2.70;99.90;;;;;;5000177;28;20056;-79
2021/12/09 00:56:11;;;;;;;17.63;8.77;;;2.60;99.90;;;;;;5034134;28;20045;-79
2021/12/09 00:58:39;;;;;;;18.58;8.95;;;2.60;99.90;;;;;;5033619;28;20041;-78
2021/12/09 01:01:06;;;;;;;26.98;9.88;;;2.60;99.90;;;;;;5033915;28;20050;-79
2021/12/09 01:03:32;;;;;;;19.70;9.98;;;2.60;99.90;;;;;;5034053;28;20053;-79
2021/12/09 01:05:58;;;;;;;22.48;10.18;;;2.60;99.90;;;;;;5033552;28;20045;-78
2021/12/09 01:08:24;;;;;;;21.63;10.17;;;2.60;99.90;;;;;;5033520;28;20140;-78
2021/12/09 01:10:50;;;;;;;25.00;11.13;;;2.60;99.90;;;;;;4995232;28;1124005;-78
2021/12/09 01:13:16;;;;;;;19.15;10.07;;;2.60;99.90;;;;;;5034856;28;20049;-78
2021/12/09 01:15:42;;;;;;;20.07;9.73;;;2.60;99.90;;;;;;5016930;28;20049;-78
2021/12/09 01:18:08;;;;;;;26.00;10.67;;;2.60;99.90;;;;;;5034748;28;20136;-78
2021/12/09 01:20:34;;;;;;;19.97;9.97;;;2.60;99.90;;;;;;5017090;28;20088;-78
2021/12/09 01:23:02;;;;;;;19.80;9.88;;;2.60;99.90;;;;;;5033911;28;20451;-78
2021/12/09 01:25:32;;;;;;;22.52;9.95;;;2.60;99.90;;;;;;5034615;28;20088;-78
2021/12/09 01:27:57;;;;;;;20.30;10.85;;;2.60;99.90;;;;;;5034178;28;20053;-78
2021/12/09 01:30:24;;;;;;;23.40;11.40;;;2.60;99.90;;;;;;5016846;28;20095;-78
2021/12/09 01:32:53;;;;;;;20.80;9.85;;;2.50;99.90;;;;;;5034073;28;20042;-78
2021/12/09 01:35:37;;;;;;;20.80;10.32;;;2.60;99.90;;;;;;5034474;28;20063;-78
2021/12/09 01:38:13;;;;;;;23.08;9.70;;;2.60;99.90;;;;;;5033913;28;20093;-78
2021/12/09 01:40:39;;;;;;;20.35;10.60;;;2.60;99.90;;;;;;5034312;28;20049;-78
2021/12/09 01:43:05;;;;;;;22.63;10.73;;;2.60;99.90;;;;;;5033848;28;20041;-78
2021/12/09 01:45:31;;;;;;;20.90;11.07;;;2.60;99.90;;;;;;5033271;28;20102;-78
2021/12/09 01:47:57;;;;;;;19.20;11.57;;;2.50;99.90;;;;;;5033556;28;20132;-78
2021/12/09 01:50:24;;;;;;;22.30;10.70;;;2.50;99.90;;;;;;5016475;28;20046;-78
2021/12/09 01:52:50;;;;;;;16.95;10.68;;;2.60;99.90;;;;;;5033784;28;20124;-78
2021/12/09 01:55:18;;;;;;;24.17;12.97;;;2.50;99.90;;;;;;5016199;28;20053;-77
2021/12/09 01:57:48;;;;;;;21.10;11.35;;;2.50;99.90;;;;;;5033642;28;20056;-77
2021/12/09 02:00:17;;;;;;;25.48;11.82;;;2.50;99.90;;;;;;5034205;28;20059;-78
2021/12/09 02:02:43;;;;;;;22.65;12.50;;;2.50;99.90;;;;;;5033470;28;20037;-78
2021/12/09 02:05:11;;;;;;;21.23;11.90;;;2.50;99.90;;;;;;5033545;28;20122;-78
2021/12/09 02:07:38;;;;;;;23.60;11.10;;;2.50;99.90;;;;;;5033861;28;20092;-77
2021/12/09 02:10:07;;;;;;;21.70;11.85;;;2.40;99.90;;;;;;5033272;28;20527;-77
2021/12/09 02:12:33;;;;;;;22.88;11.52;;;2.50;99.90;;;;;;5033600;28;20057;-78
2021/12/09 02:15:00;;;;;;;17.47;10.50;;;2.50;99.90;;;;;;5033301;28;20044;-78
2021/12/09 02:17:28;;;;;;;20.42;10.57;;;2.40;99.90;;;;;;4999758;28;20328;-78
2021/12/09 02:19:57;;;;;;;22.33;11.57;;;2.40;99.90;;;;;;5015661;28;20098;-77
2021/12/09 02:22:24;;;;;;;19.63;10.68;;;2.40;99.90;;;;;;5033483;28;20133;-77
2021/12/09 02:24:52;;;;;;;29.63;13.77;;;2.40;99.90;;;;;;5032747;28;20107;-77
2021/12/09 02:27:18;;;;;;;23.45;12.88;;;2.40;99.90;;;;;;5033176;28;20525;-78
2021/12/09 02:29:44;;;;;;;25.30;12.23;;;2.40;99.90;;;;;;5033256;28;20046;-78
2021/12/09 02:32:10;;;;;;;20.47;12.33;;;2.40;99.90;;;;;;5032823;28;20338;-78
2021/12/09 02:34:36;;;;;;;24.30;13.33;;;2.30;99.90;;;;;;5033215;28;20060;-78
2021/12/09 02:37:03;;;;;;;24.53;12.83;;;2.40;99.90;;;;;;5032978;28;20073;-78
2021/12/09 02:39:30;;;;;;;21.77;13.40;;;2.40;99.90;;;;;;4983500;28;20041;-78
2021/12/09 02:41:56;;;;;;;24.25;13.00;;;2.40;99.90;;;;;;5032906;28;20049;-77
2021/12/09 02:44:23;;;;;;;22.65;12.27;;;2.40;99.90;;;;;;5015714;28;20053;-78
2021/12/09 02:46:51;;;;;;;21.38;12.40;;;2.40;99.90;;;;;;5032942;28;20089;-78
2021/12/09 02:49:20;;;;;;;29.13;14.65;;;2.30;99.90;;;;;;5033066;28;20041;-78
2021/12/09 02:51:47;;;;;;;24.40;12.82;;;2.30;99.90;;;;;;5033040;28;20049;-78
2021/12/09 02:54:16;;;;;;;25.08;14.07;;;2.30;99.90;;;;;;5032630;28;20092;-79
2021/12/09 02:56:44;;;;;;;24.55;12.32;;;2.30;99.90;;;;;;5032758;28;20037;-78
2021/12/09 02:59:09;;;;;;;20.85;12.20;;;2.30;99.90;;;;;;5032591;28;20512;-78
2021/12/09 03:01:39;;;;;;;27.13;13.57;;;2.30;99.90;;;;;;5033097;28;20053;-78
2021/12/09 03:04:05;;;;;;;23.33;13.73;;;2.30;99.90;;;;;;5032545;28;20370;-78
2021/12/09 03:06:40;;;;;;;22.80;13.60;;;2.30;99.90;;;;;;5015198;28;20071;-78
2021/12/09 03:09:13;;;;;;;23.27;12.68;;;2.30;99.90;;;;;;5032492;28;20089;-78
2021/12/09 03:11:41;;;;;;;23.85;14.15;;;2.30;99.90;;;;;;5015209;28;20406;-78
2021/12/09 03:14:07;;;;;;;25.77;13.68;;;2.30;99.90;;;;;;5032229;28;20497;-78
2021/12/09 03:16:34;;;;;;;23.38;13.10;;;2.30;99.90;;;;;;5033014;28;20076;-78
2021/12/09 03:19:04;;;;;;;24.00;12.73;;;2.30;99.90;;;;;;5014932;28;20084;-78
2021/12/09 03:21:33;;;;;;;22.15;12.57;;;2.30;99.90;;;;;;5032916;28;20052;-78
2021/12/09 03:24:00;;;;;;;28.70;13.70;;;2.30;99.90;;;;;;5032545;28;20050;-78
2021/12/09 03:26:40;;;;;;;21.33;12.45;;;2.30;99.90;;;;;;5032804;28;20056;-78
2021/12/09 03:29:10;;;;;;;20.92;13.68;;;2.30;99.90;;;;;;5014955;28;20049;-78
2021/12/09 03:31:42;;;;;;;23.98;13.48;;;2.30;99.90;;;;;;5032555;28;20049;-78
2021/12/09 03:34:08;;;;;;;24.25;13.45;;;2.30;99.90;;;;;;5031906;28;20493;-78
2021/12/09 03:36:34;;;;;;;22.17;13.18;;;2.30;99.90;;;;;;5032502;28;20100;-78
2021/12/09 03:39:04;;;;;;;22.17;13.30;;;2.30;99.90;;;;;;5032260;28;20135;-78
2021/12/09 03:41:30;;;;;;;25.45;13.50;;;2.30;99.90;;;;;;5032800;28;20168;-78
2021/12/09 03:43:56;;;;;;;22.27;13.17;;;2.30;99.90;;;;;;5015095;28;20495;-78
2021/12/09 03:46:24;;;;;;;26.43;13.90;;;2.30;99.90;;;;;;5032038;28;20046;-78
2021/12/09 03:48:50;;;;;;;25.38;13.80;;;2.30;99.90;;;;;;5032363;28;20046;-77
2021/12/09 03:51:16;;;;;;;22.50;12.53;;;2.30;99.90;;;;;;5032151;28;20120;-77
2021/12/09 03:53:42;;;;;;;24.97;15.10;;;2.30;99.90;;;;;;5032360;28;20478;-78
2021/12/09 03:56:07;;;;;;;27.17;13.83;;;2.30;99.90;;;;;;5032033;28;20046;-77
2021/12/09 03:58:33;;;;;;;18.73;12.57;;;2.30;99.90;;;;;;5032329;28;20049;-77
2021/12/09 04:00:59;;;;;;;26.63;13.40;;;2.20;99.90;;;;;;5032484;28;20050;-77
2021/12/09 04:03:25;;;;;;;21.17;14.23;;;2.20;99.90;;;;;;5031989;28;20051;-77
2021/12/09 04:05:51;;;;;;;26.57;13.83;;;2.20;99.90;;;;;;5032169;28;20096;-78
2021/12/09 04:08:18;;;;;;;25.77;13.90;;;2.20;99.90;;;;;;5031989;28;20049;-78
2021/12/09 04:10:44;;;;;;;23.17;13.18;;;2.20;99.90;;;;;;5035761;28;20049;-77
2021/12/09 04:13:10;;;;;;;21.83;13.05;;;2.20;99.90;;;;;;5018164;28;20455;-77
2021/12/09 04:15:36;;;;;;;28.70;13.83;;;2.20;99.90;;;;;;5035852;28;20132;-77
2021/12/09 04:18:02;;;;;;;21.87;13.17;;;2.20;99.90;;;;;;5035805;28;20098;-77
2021/12/09 04:20:28;;;;;;;25.35;13.10;;;2.10;99.90;;;;;;5035398;28;20057;-77
2021/12/09 04:22:54;;;;;;;25.23;14.50;;;2.20;99.90;;;;;;5035855;28;20517;-77
2021/12/09 04:25:22;;;;;;;28.23;14.10;;;2.20;99.90;;;;;;5035218;28;20124;-77
2021/12/09 04:27:50;;;;;;;30.20;14.57;;;2.10;99.90;;;;;;5035610;28;20049;-77
2021/12/09 04:30:17;;;;;;;25.67;13.00;;;2.10;99.90;;;;;;5017755;28;20061;-77
2021/12/09 04:32:44;;;;;;;26.42;14.07;;;2.10;99.90;;;;;;5035499;28;20045;-78
2021/12/09 04:35:11;;;;;;;26.10;14.05;;;2.10;99.90;;;;;;5035325;28;20053;-78
2021/12/09 04:37:38;;;;;;;27.00;14.52;;;2.10;99.90;;;;;;5017732;28;20528;-77
2021/12/09 04:40:06;;;;;;;24.92;12.63;;;2.10;99.90;;;;;;5035408;28;20081;-77
2021/12/09 04:42:32;;;;;;;25.42;13.50;;;2.10;99.90;;;;;;5017834;28;20045;-77
2021/12/09 04:44:58;;;;;;;29.40;13.47;;;2.10;99.90;;;;;;5035213;28;20052;-77
2021/12/09 04:47:24;;;;;;;27.48;13.10;;;2.10;99.90;;;;;;5017216;28;20054;-78
2021/12/09 04:49:50;;;;;;;28.83;13.63;;;2.10;99.90;;;;;;5035152;28;20125;-78
2021/12/09 04:52:16;;;;;;;27.67;13.50;;;2.10;99.90;;;;;;5034840;28;20283;-77
2021/12/09 04:54:41;;;;;;;29.57;14.20;;;2.10;99.90;;;;;;5035115;28;20037;-77
2021/12/09 04:57:10;;;;;;;25.97;13.50;;;2.10;99.90;;;;;;5035183;28;20046;-77
2021/12/09 04:59:36;;;;;;;25.25;13.20;;;2.00;99.90;;;;;;5034941;28;20128;-77
2021/12/09 05:02:02;;;;;;;25.23;13.87;;;2.00;99.90;;;;;;5034962;28;20128;-77
2021/12/09 05:04:28;;;;;;;28.60;13.10;;;2.10;99.90;;;;;;5034512;28;20536;-77
2021/12/09 05:06:55;;;;;;;26.42;12.82;;;2.10;99.90;;;;;;5034790;28;20037;-77
2021/12/09 05:09:21;;;;;;;24.75;12.90;;;2.10;99.90;;;;;;5034509;28;20183;-77
2021/12/09 05:11:48;;;;;;;29.20;13.37;;;2.10;99.90;;;;;;5017136;28;20135;-78
2021/12/09 05:14:19;;;;;;;27.70;14.45;;;2.10;99.90;;;;;;5034393;28;20096;-78
2021/12/09 05:16:48;;;;;;;23.00;12.90;;;2.10;99.90;;;;;;5034701;28;20049;-78
2021/12/09 05:19:14;;;;;;;27.75;13.45;;;2.10;99.90;;;;;;5034313;28;20049;-77
2021/12/09 05:21:39;;;;;;;23.27;12.07;;;2.10;99.90;;;;;;5033492;28;20060;-78
2021/12/09 05:24:11;;;;;;;28.30;12.33;;;2.10;99.90;;;;;;5016947;28;20046;-78
2021/12/09 05:26:45;;;;;;;21.58;11.60;;;2.10;99.90;;;;;;5034087;28;20045;-78
2021/12/09 05:29:13;;;;;;;24.73;12.05;;;2.10;99.90;;;;;;5034720;28;20045;-78
2021/12/09 05:34:24;;;;;;;27.85;13.73;;;2.00;99.90;;;;;;5034096;28;20056;-78
2021/12/09 05:36:51;;;;;;;22.88;12.35;;;2.10;99.90;;;;;;5016926;28;20111;-77
2021/12/09 05:39:17;;;;;;;26.05;12.77;;;2.00;99.90;;;;;;5033869;28;20049;-77
2021/12/09 05:41:44;;;;;;;24.20;12.20;;;2.10;99.90;;;;;;5034173;28;20099;-77
2021/12/09 05:44:11;;;;;;;25.40;12.15;;;2.00;99.90;;;;;;5034334;28;20080;-77
2021/12/09 05:46:39;;;;;;;27.27;13.10;;;2.00;99.90;;;;;;5016032;28;20053;-77
2021/12/09 05:49:06;;;;;;;24.63;12.10;;;2.20;99.90;;;;;;5016332;28;20092;-78
2021/12/09 05:51:32;;;;;;;29.38;13.05;;;2.10;99.90;;;;;;5016258;28;20137;-78
2021/12/09 05:53:58;;;;;;;25.05;13.15;;;2.00;99.90;;;;;;5034024;28;20045;-78
2021/12/09 05:56:24;;;;;;;21.23;12.43;;;2.10;99.90;;;;;;5033539;28;20041;-77
2021/12/09 05:58:50;;;;;;;27.80;13.15;;;2.20;99.90;;;;;;5034180;28;20045;-77
2021/12/09 06:01:16;;;;;;;27.20;13.73;;;2.00;99.90;;;;;;5033959;28;20052;-78
2021/12/09 06:03:42;;;;;;;24.15;12.30;;;2.20;99.90;;;;;;5033541;28;20049;-77
2021/12/09 06:06:08;;;;;;;21.07;12.03;;;1.90;99.90;;;;;;5033771;28;20141;-77
2021/12/09 06:08:37;;;;;;;24.80;12.25;;;1.90;99.90;;;;;;5033479;28;20046;-77
2021/12/09 06:11:04;;;;;;;25.05;12.55;;;1.90;99.90;;;;;;5033728;28;20056;-77
2021/12/09 06:13:31;;;;;;;26.50;12.77;;;1.90;99.90;;;;;;5015735;28;20394;-77
2021/12/09 06:15:58;;;;;;;21.45;11.85;;;1.90;99.90;;;;;;5033691;28;20045;-77
2021/12/09 06:18:25;;;;;;;28.20;13.60;;;1.90;99.90;;;;;;5033318;28;20077;-77
2021/12/09 06:20:51;;;;;;;26.55;12.70;;;1.90;99.90;;;;;;5033516;28;20049;-77
2021/12/09 06:23:16;;;;;;;27.13;11.85;;;1.80;99.90;;;;;;5033542;28;20042;-78
2021/12/09 06:25:42;;;;;;;22.20;11.90;;;1.80;99.90;;;;;;5033100;28;20083;-78
2021/12/09 06:28:08;;;;;;;25.35;13.27;;;1.80;99.90;;;;;;5033506;28;20081;-78
2021/12/09 06:30:34;;;;;;;26.73;12.60;;;1.80;99.90;;;;;;5015563;28;20155;-78
2021/12/09 06:33:01;;;;;;;22.30;11.95;;;1.80;99.90;;;;;;5015907;28;20053;-78
2021/12/09 06:35:27;;;;;;;27.80;13.23;;;1.80;99.90;;;;;;5015473;28;20064;-78
2021/12/09 06:37:56;;;;;;;27.98;12.35;;;1.80;99.90;;;;;;5015822;28;20037;-78
2021/12/09 06:40:23;;;;;;;28.30;14.00;;;1.80;99.90;;;;;;5033273;28;20099;-77
2021/12/09 06:42:51;;;;;;;29.70;14.88;;;1.80;99.90;;;;;;5033157;28;20045;-77
2021/12/09 06:45:18;;;;;;;27.50;13.77;;;1.80;99.90;;;;;;4999444;28;20560;-77
2021/12/09 06:47:45;;;;;;;24.00;13.15;;;1.80;99.90;;;;;;5032844;28;20045;-77
2021/12/09 06:50:13;;;;;;;20.48;11.25;;;1.80;99.90;;;;;;5015466;28;20052;-77
2021/12/09 06:52:39;;;;;;;24.75;14.27;;;1.80;99.90;;;;;;5032869;28;20053;-77
2021/12/09 06:55:07;;;;;;;25.27;11.95;;;1.80;99.90;;;;;;5033047;28;20128;-77
2021/12/09 06:57:32;;;;;;;29.02;12.88;;;1.80;99.90;;;;;;5032745;28;20049;-77
2021/12/09 06:59:58;;;;;;;28.07;13.33;;;1.80;99.90;;;;;;5032933;28;20056;-77
2021/12/09 07:02:24;;;;;;;24.60;11.50;;;1.80;99.90;;;;;;5015514;28;20076;-77
2021/12/09 07:04:49;;;;;;;26.53;13.73;;;1.80;99.90;;;;;;5032619;28;20049;-77
2021/12/09 07:07:15;;;;;;;31.80;11.53;;;1.80;99.90;;;;;;5032937;28;20046;-77
2021/12/09 07:09:41;;;;;;;24.10;12.37;;;1.80;99.90;;;;;;5032501;28;20061;-77
2021/12/09 07:12:08;;;;;;;24.70;11.10;;;1.80;99.90;;;;;;5032863;28;20053;-77
2021/12/09 07:14:34;;;;;;;28.85;12.38;;;1.80;99.90;;;;;;5014957;28;20064;-77
2021/12/09 07:17:00;;;;;;;22.67;11.15;;;1.80;99.90;;;;;;5032809;28;20090;-77
2021/12/09 07:19:26;;;;;;;31.27;11.60;;;1.80;99.90;;;;;;5015214;28;20168;-77
2021/12/09 07:21:52;;;;;;;28.13;12.87;;;1.80;99.90;;;;;;5032510;28;20092;-77
2021/12/09 07:24:18;;;;;;;25.90;12.67;;;1.70;99.90;;;;;;5033023;28;20122;-77
2021/12/09 07:26:43;;;;;;;29.45;12.77;;;1.70;99.90;;;;;;5032403;28;20057;-77
2021/12/09 07:29:09;;;;;;;28.53;12.10;;;1.70;99.90;;;;;;5032786;28;20046;-77
2021/12/09 07:31:35;;;;;;;23.60;11.60;;;1.70;99.90;;;;;;5015245;28;20049;-77
2021/12/09 07:34:01;;;;;;;28.87;12.63;;;1.70;99.90;;;;;;5032701;28;20131;-78
2021/12/09 07:36:27;;;;;;;26.17;12.10;;;1.70;99.90;;;;;;5032734;28;20049;-78
2021/12/09 07:38:53;;;;;;;19.55;10.93;;;1.70;99.90;;;;;;5032370;28;20042;-78
2021/12/09 07:41:21;;;;;;;26.00;12.07;;;1.70;99.90;;;;;;5032578;28;20042;-78
2021/12/09 07:43:49;;;;;;;20.58;10.85;;;1.70;99.90;;;;;;5033198;28;20133;-77
2021/12/09 07:46:15;;;;;;;25.25;11.82;;;1.70;99.90;;;;;;5036417;28;20054;-78
2021/12/09 07:48:41;;;;;;;26.77;11.77;;;1.70;99.90;;;;;;5036155;28;20045;-78
2021/12/09 07:51:06;;;;;;;21.90;10.47;;;1.70;99.90;;;;;;5036409;28;20099;-77
2021/12/09 07:53:32;;;;;;;27.87;11.30;;;1.70;99.90;;;;;;5036392;28;20051;-78
2021/12/09 07:55:58;;;;;;;23.63;11.83;;;1.80;99.90;;;;;;5018564;28;20470;-82
2021/12/09 07:58:24;;;;;;;23.20;11.73;;;1.80;99.90;;;;;;5036556;28;20049;-79
2021/12/09 08:00:50;;;;;;;25.97;11.70;;;1.80;99.90;;;;;;5036039;28;20054;-79
2021/12/09 08:03:16;;;;;;;27.17;11.63;;;1.80;99.90;;;;;;5036332;28;20426;-79
2021/12/09 08:05:44;;;;;;;26.65;11.73;;;1.80;99.90;;;;;;5035731;28;20094;-77
2021/12/09 08:08:11;;;;;;;26.38;11.75;;;1.80;99.90;;;;;;5018751;28;20123;-79
2021/12/09 08:10:37;;;;;;;26.90;11.63;;;1.80;99.90;;;;;;5036159;28;20062;-77
2021/12/09 08:13:03;;;;;;;26.10;11.98;;;1.80;99.90;;;;;;5035986;28;20045;-77
2021/12/09 08:15:34;;;;;;;27.25;12.55;;;1.80;99.90;;;;;;5036133;28;20064;-76
2021/12/09 08:20:45;;;;;;;28.08;10.45;;;1.90;99.90;;;;;;5035628;28;20064;-76
2021/12/09 08:23:10;;;;;;;30.48;15.38;;;1.90;99.90;;;;;;5018619;28;20052;-77
2021/12/09 08:25:37;;;;;;;67.03;39.50;;;1.90;99.90;;;;;;5018078;28;20469;-77
2021/12/09 08:28:03;;;;;;;33.75;17.17;;;1.90;99.90;;;;;;5035404;28;20529;-76
2021/12/09 08:30:29;;;;;;;52.50;26.23;;;1.90;99.90;;;;;;5035851;28;20104;-77
2021/12/09 08:32:55;;;;;;;91.70;46.83;;;1.90;99.90;;;;;;5035325;28;20081;-77
2021/12/09 08:35:21;;;;;;;78.47;40.50;;;1.90;99.90;;;;;;5035530;28;20038;-76
2021/12/09 08:37:48;;;;;;;28.17;15.05;;;1.90;99.90;;;;;;5035231;28;20037;-75
2021/12/09 08:40:15;;;;;;;24.73;11.18;;;2.00;99.90;;;;;;5035692;28;20053;-76
2021/12/09 08:42:42;;;;;;;24.48;11.48;;;2.00;99.90;;;;;;5017920;28;20045;-76
2021/12/09 08:45:10;;;;;;;25.23;12.30;;;2.00;99.90;;;;;;5035257;28;20037;-75
2021/12/09 08:47:41;;;;;;;25.80;11.05;;;2.00;99.90;;;;;;5035337;28;20089;-76
2021/12/09 08:50:10;;;;;;;32.42;20.33;;;2.00;99.90;;;;;;5035416;28;20092;-76
2021/12/09 08:52:36;;;;;;;29.83;14.63;;;2.00;99.90;;;;;;5035200;28;20057;-76
2021/12/09 08:55:03;;;;;;;26.00;12.20;;;2.00;99.90;;;;;;5034574;28;20045;-76
2021/12/09 08:57:31;;;;;;;20.30;11.10;;;2.00;99.90;;;;;;5017642;28;20087;-76
2021/12/09 08:59:58;;;;;;;25.10;12.07;;;2.00;99.90;;;;;;5034524;28;20567;-76
2021/12/09 09:02:24;;;;;;;25.80;10.27;;;2.00;99.90;;;;;;5034974;28;20096;-76
2021/12/09 09:04:50;;;;;;;23.43;10.60;;;2.00;99.90;;;;;;5034623;28;20045;-77
2021/12/09 09:07:17;;;;;;;20.20;9.43;;;2.10;99.90;;;;;;5017422;28;20121;-76
2021/12/09 09:09:43;;;;;;;21.27;10.57;;;2.10;99.90;;;;;;5034703;28;20053;-76
2021/12/09 09:12:13;;;;;;;24.35;9.52;;;2.10;99.90;;;;;;5034550;28;20107;-76
2021/12/09 09:14:41;;;;;;;26.65;9.82;;;2.10;99.90;;;;;;5017541;28;20092;-82
2021/12/09 09:17:08;;;;;;;25.27;10.07;;;2.20;99.90;;;;;;5034440;28;20191;-77
2021/12/09 09:19:34;;;;;;;25.02;9.60;;;2.20;99.90;;;;;;5034692;28;20096;-74
2021/12/09 09:21:59;;;;;;;21.53;10.83;;;2.20;99.90;;;;;;5016916;28;20454;-76
2021/12/09 09:24:25;;;;;;;26.47;11.03;;;2.20;99.90;;;;;;5034946;28;20042;-74
2021/12/09 09:26:51;;;;;;;19.40;9.33;;;2.30;99.90;;;;;;5016716;28;20474;-76
2021/12/09 09:29:17;;;;;;;25.40;9.77;;;2.30;99.90;;;;;;5034535;28;20084;-75
2021/12/09 09:31:43;;;;;;;20.20;9.10;;;2.30;99.90;;;;;;5034520;28;20097;-75
2021/12/09 09:34:11;;;;;;;22.60;9.77;;;2.40;99.90;;;;;;5034113;28;20045;-74
2021/12/09 09:36:43;;;;;;;26.10;10.07;;;2.40;99.90;;;;;;5016801;28;20038;-73
2021/12/09 09:39:17;;;;;;;19.85;9.57;;;2.40;99.90;;;;;;5034192;28;20191;-73
2021/12/09 09:41:58;;;;;;;19.58;10.75;;;2.40;99.90;;;;;;5034571;28;20048;-73
2021/12/09 09:44:31;;;;;;;21.38;9.25;;;2.50;99.90;;;;;;5034588;28;20155;-73
2021/12/09 09:46:59;;;;;;;22.33;8.73;;;2.40;99.90;;;;;;5033631;28;20508;-74
2021/12/09 09:49:25;;;;;;;20.52;9.05;;;2.50;99.90;;;;;;5016752;28;20045;-72
2021/12/09 09:51:51;;;;;;;23.92;9.93;;;2.50;99.90;;;;;;5034102;28;20128;-75
2021/12/09 09:54:17;;;;;;;22.17;9.03;;;2.50;99.90;;;;;;5016781;28;20117;-73
2021/12/09 09:56:43;;;;;;;26.13;10.70;;;2.60;99.90;;;;;;5034063;28;20482;-72
2021/12/09 09:59:10;;;;;;;24.53;9.43;;;2.60;99.90;;;;;;5033694;28;20089;-73
2021/12/09 10:01:38;;;;;;;16.25;8.85;;;2.60;99.90;;;;;;5034224;28;20280;-72
2021/12/09 10:04:20;;;;;;;20.52;8.63;;;2.90;99.90;;;;;;5033398;28;20498;-72
2021/12/09 10:06:47;;;;;;;24.35;9.20;;;2.80;99.90;;;;;;5033456;28;20046;-72
2021/12/09 10:09:15;;;;;;;22.00;8.63;;;2.80;99.90;;;;;;5033340;28;20102;-72
2021/12/09 10:11:41;;;;;;;18.95;8.73;;;2.80;99.90;;;;;;5034090;28;20049;-73
2021/12/09 10:14:20;;;;;;;25.17;9.68;;;3.10;99.90;;;;;;5033443;28;20049;-75
2021/12/09 10:16:59;;;;;;;23.20;9.05;;;2.90;99.90;;;;;;5033904;28;20042;-78
2021/12/09 10:19:25;;;;;;;20.20;9.43;;;2.90;99.90;;;;;;5016194;28;20053;-73
2021/12/09 10:22:16;;;;;;;22.30;8.93;;;2.90;99.90;;;;;;5033551;28;20099;-78
2021/12/09 10:24:45;;;;;;;21.25;9.25;;;3.00;99.90;;;;;;5033572;28;20053;-76
2021/12/09 10:27:25;;;;;;;20.67;10.40;;;3.00;99.90;;;;;;5033109;28;20095;-76
2021/12/09 10:29:56;;;;;;;24.13;10.35;;;3.00;99.90;;;;;;5033471;28;20053;-78
2021/12/09 10:32:28;;;;;;;22.83;10.63;;;3.10;99.90;;;;;;5033878;28;20103;-75
2021/12/09 10:34:54;;;;;;;22.02;10.90;;;3.10;99.90;;;;;;5033533;28;20103;-76
2021/12/09 10:37:29;;;;;;;26.60;11.88;;;3.10;99.90;;;;;;5033101;28;20081;-76
2021/12/09 10:39:57;;;;;;;17.85;8.63;;;3.10;99.90;;;;;;5033447;28;20103;-78
2021/12/09 10:42:26;;;;;;;28.42;13.27;;;3.10;99.90;;;;;;5032902;28;20045;-77
2021/12/09 10:44:54;;;;;;;29.48;12.88;;;3.10;99.90;;;;;;5033360;28;20060;-75
2021/12/09 10:47:45;;;;;;;25.75;12.82;;;3.10;99.90;;;;;;5015415;28;20549;-77
2021/12/09 10:50:22;;;;;;;28.52;13.70;;;;;;;;;;4999137;28;20049;-74
2021/12/09 10:52:51;;;;;;;28.05;13.52;;;;;;;;;;5033162;28;20129;-82
2021/12/09 10:55:17;;;;;;;33.75;14.73;;;;;;;;;;5015091;28;20049;-82
2021/12/09 10:57:44;;;;;;;29.38;13.05;;;;;;;;;;5032953;28;20089;-77
2021/12/09 11:00:16;;;;;;;28.23;14.27;;;;;;;;;;5032656;28;20049;-79
2021/12/09 11:03:00;;;;;;;30.83;13.95;;;;;;;;;;5033169;28;20057;-77
2021/12/09 11:05:26;;;;;;;35.47;17.10;;;;;;;;;;5032601;28;20049;-77
2021/12/09 11:07:52;;;;;;;30.42;14.60;;;;;;;;;;5015491;28;20085;-83
2021/12/09 11:10:24;;;;;;;36.42;14.23;;;;;;;;;;5032391;28;20500;-80
2021/12/09 11:12:54;;;;;;;32.55;13.98;;;;;;;;;;5032836;28;20045;-86
2021/12/09 11:15:22;;;;;;;30.58;13.50;;;;;;;;;;5032480;28;20042;-79
2021/12/09 11:17:51;;;;;;;37.53;18.00;;;;;;;;;;5033621;28;20054;-77
2021/12/09 11:20:36;;;;;;;30.05;15.23;;;;;;;;;;5036622;28;20053;-79
2021/12/09 11:23:31;;;;;;;37.90;15.05;;;3.60;99.90;;;;;;5036870;28;20057;-78
2021/12/09 11:26:17;;;;;;;29.95;14.75;;;3.50;99.90;;;;;;5036965;28;20064;-77
2021/12/09 11:29:05;;;;;;;25.45;13.48;;;3.50;99.90;;;;;;5019195;28;20049;-77
2021/12/09 11:31:34;;;;;;;30.92;14.63;;;3.50;99.90;;;;;;5037000;28;20051;-76
2021/12/09 11:34:10;;;;;;;35.20;15.20;;;3.50;99.90;;;;;;5036471;28;20089;-75
2021/12/09 11:36:45;;;;;;;29.05;14.65;;;3.50;99.90;;;;;;5036694;28;20045;-76
2021/12/09 11:39:19;;;;;;;29.73;15.05;;;3.50;99.90;;;;;;5036301;28;20406;-77
2021/12/09 11:41:46;;;;;;;37.20;15.98;;;3.50;99.90;;;;;;5036746;28;20052;-77
2021/12/09 11:44:14;;;;;;;32.28;17.75;;;3.50;99.90;;;;;;5036185;28;20136;-77
2021/12/09 11:46:42;;;;;;;38.90;20.73;;;3.50;99.90;;;;;;5036300;28;20049;-77
2021/12/09 11:49:09;;;;;;;31.98;15.70;;;3.60;99.90;;;;;;5036412;28;20088;-75
2021/12/09 11:51:45;;;;;;;84.38;42.55;;;3.50;99.90;;;;;;5036315;28;20049;-77
2021/12/09 11:54:10;;;;;;;;;;;3.60;99.90;;;;;;5036654;28;20398;-76
2021/12/09 11:56:54;;;;;;;;;;;3.50;99.90;;;;;;5036688;28;19921;-82
2021/12/09 12:11:30;;;;;;;61.47;29.38;;;3.60;99.90;;;;;;5004234;28;20498;-75
2021/12/09 12:14:03;;;;;;;34.38;19.35;;;;;;;;;;5035960;28;20054;-74
2021/12/09 12:16:36;;;;;;;40.92;19.67;;;;;;;;;;5017993;28;20053;-74
2021/12/09 12:19:12;;;;;;;53.10;25.08;;;;;;;;;;5035882;28;20046;-75
2021/12/09 12:21:56;;;;;;;37.45;17.80;;;3.80;99.90;;;;;;5018553;28;20049;-75
2021/12/09 12:27:27;;;;;;;46.67;19.30;;;3.80;99.90;;;;;;5035743;28;20046;-76
2021/12/09 12:33:10;;;;;;;38.97;18.23;;;3.80;99.90;;;;;;5036033;28;20057;-78
2021/12/09 12:35:53;;;;;;;39.25;19.83;;;3.80;99.90;;;;;;5035559;28;20115;-80
2021/12/09 12:41:06;;;;;;;42.92;20.30;;;3.90;99.90;;;;;;5035589;28;20089;-76
2021/12/09 12:43:53;;;;;;;40.10;20.25;;;4.00;99.90;;;;;;5035370;28;20041;-76
2021/12/09 12:49:19;;;;;;;38.30;20.60;;;4.30;99.90;;;;;;5035488;28;20053;-75
2021/12/09 12:52:20;;;;;;;47.65;24.30;;;4.00;99.90;;;;;;5035695;28;20037;-79
2021/12/09 12:54:55;;;;;;;39.55;19.13;;;4.20;99.90;;;;;;5035333;28;20074;-76
2021/12/09 12:57:44;;;;;;;39.77;20.13;;;4.10;99.90;;;;;;5035001;28;20045;-74
2021/12/09 13:00:32;;;;;;;40.30;20.10;;;4.10;99.90;;;;;;5035181;28;20129;-73
2021/12/09 13:11:44;;;;;;;35.15;18.85;;;4.10;99.90;;;;;;5034777;28;20607;-76
2021/12/09 13:14:19;;;;;;;40.45;19.25;;;4.10;99.90;;;;;;5034719;28;20508;-76
2021/12/09 13:17:03;;;;;;;41.97;23.50;;;4.10;99.90;;;;;;5035191;28;20046;-76
2021/12/09 13:19:36;;;;;;;46.88;21.73;;;4.10;99.90;;;;;;5034575;28;20050;-76
2021/12/09 13:22:26;;;;;;;64.22;33.17;;;4.10;99.90;;;;;;5034789;28;20473;-76
2021/12/09 13:25:06;;;;;;;49.40;25.50;;;4.10;99.90;;;;;;5035000;28;20053;-76
2021/12/09 13:27:57;;;;;;;45.03;21.50;;;4.10;99.90;;;;;;5034360;28;20500;-75
2021/12/09 13:49:47;;;;;;;38.25;20.35;;;4.20;99.90;;;;;;5016273;28;20151;-80